Home   Weather   Canada   London   Past weeks
Flag for Canada

Past Weather in London, Ontario, Canada — June 2021

Currently: 79 °F. More clouds than sun. (Weather station: London Weather Station, Canada). See more current weather

June 2021 Weather in London — Graph

°F

High & Low Weather Summary for June 2021

 TemperatureHumidityPressure
High88 °F (Jun 29, 1:00 pm)100% (Jun 2, 10:00 pm)30.25 "Hg (Jun 2, 10:00 pm)
Low41 °F (Jun 17, 5:00 am)25% (Jun 15, 2:00 pm)29.46 "Hg (Jun 21, 8:43 am)
Average69 °F75%29.96 "Hg
* Reported Jun 1 12:00 am — Jun 30 11:00 pm, London. Weather by CustomWeather, © 2022

Note: Actual official high and low records may vary slightly from our data, if they occured in-between our weather recording intervals... More about our weather records

London Weather History for June 1, 2021

Scroll right to see more
 ConditionsComfort  
Time TempWeatherWind HumidityBarometerVisibility
12:00 am
Tue, Jun 1
61 °FMostly cloudy.No wind52%30.22 "Hg15 mi
1:00 am61 °FOvercast.6 mph52%30.22 "Hg15 mi
2:00 am61 °FMostly cloudy.6 mph52%30.20 "Hg15 mi
3:00 am59 °FOvercast.3 mph59%30.21 "Hg15 mi
4:00 am55 °FOvercast.3 mph77%30.21 "Hg15 mi
5:00 am57 °FPassing clouds.2 mph67%30.22 "Hg15 mi
6:00 am55 °FPartly sunny.6 mph72%30.23 "Hg15 mi
7:00 am57 °FPartly sunny.2 mph67%30.24 "Hg15 mi
8:00 am61 °FScattered clouds.2 mph63%30.24 "Hg15 mi
9:00 am64 °FPassing clouds.5 mph56%30.24 "Hg15 mi
10:00 am68 °FScattered clouds.3 mph43%30.25 "Hg15 mi
11:00 am70 °FPartly sunny.3 mph50%30.24 "Hg15 mi
12:00 pm72 °FScattered clouds.5 mph41%30.22 "Hg15 mi
1:00 pm72 °FBroken clouds.7 mph41%30.22 "Hg15 mi
2:00 pm73 °FScattered clouds.2 mph41%30.20 "Hg15 mi
3:00 pm73 °FPartly sunny.8 mph41%30.19 "Hg15 mi
4:00 pm72 °FBroken clouds.10 mph41%30.19 "Hg15 mi
5:00 pm70 °FPartly sunny.17 mph43%30.19 "Hg15 mi
6:00 pm72 °FScattered clouds.13 mph41%30.19 "Hg15 mi
7:00 pm70 °FScattered clouds.10 mph43%30.18 "Hg15 mi
8:00 pm68 °FPartly sunny.12 mph43%30.18 "Hg15 mi
9:00 pm64 °FPassing clouds.7 mph49%30.18 "Hg15 mi
10:00 pm63 °FPassing clouds.3 mph52%30.19 "Hg15 mi
11:00 pm59 °FPassing clouds.3 mph63%30.19 "Hg15 mi
Weather by CustomWeather, © 2022

See weather overview